Portada
METAR-TAF:

METAR-TAF

Aeroports :

Semei, Kazakhstan

latitud: 50-21-05N, longitud: 080-14-04E, altitud: 232 m

Observació

L'informe es va fer fa 19 minuts, a les 08:00 UTC
Vent 14 kt del Sud/Sud-Oest
Temperatura 1°C
Humitat 59%
Pressió 1030 hPa
Visibilitat 10 km o més
sense núvols per sota de 1500 mi sense presència de cumulonimbus.

METAR: UASS 120800Z 20007MPS CAVOK 01/M06 Q1030 R26/450556 NOSIG RMK QFE754/1005

Hora: 14:19 (08:19 UTC)

Pronòstic

L'informe es va fer fa 3 hores i 19 minuts, a les 05:00 UTC
Pronòstic vàlid del 12 a les 06 UTC al 12 a les 15 UTC
Vent 12 kt del Sud amb ràfegues de 21 kt
Visibilitat 10 km o més
Núvols disperses a una alçada de 4000 ft
Cel ennuvolat a una alçada de 10000 ft
Temporalment
l' 12 a les 06 UTC al 12 a les 12 UTC
Vent 14 kt del Sud-Oest amb ràfegues de 23 kt

TAF: UASS 120500Z 1206/1215 19006G11MPS 9999 SCT040 BKN100 TEMPO 1206/1212 22007G12MPS

Observacions i pronòstics meteorològics de més de 4000 aeroports (METAR i TAF).

Les estacions disponibles són els punts grocs i vermells al mapa.

Posi el ratolí al punt desitjat per veure el nom de l'estació.

Feu clic per veure les observacions i els pronòstics meteorològics.

Per canviar el mapa: feu clic els botons verds amb una creu de color negre per apropar; al botó verd amb un guió per allunyar la imatge; o en les fletxes verdes per a mapes adjacents.


METAR-TAF: